Time;durP1;ratioP1;P1;durP2;ratioP2;P2;SDS_P1;SDS_P2;PMS_P1;PMS_P2;Temp;Humidity;BMP_temperature;BMP_pressure;BME280_temperature;BME280_humidity;BME280_pressure;Samples;Min_cycle;Max_cycle;Signal;HPM_P1;HPM_P2
2021/10/15 00:02:10;;;;;;;4.87;3.13;;;;;;;;;;5009917;28;20173;-63
2021/10/15 00:04:36;;;;;;;5.30;3.50;;;;;;;;;;5010041;28;20174;-62
2021/10/15 00:07:03;;;;;;;5.10;3.70;;;;;;;;;;5027832;28;20428;-62
2021/10/15 00:09:29;;;;;;;9.33;3.47;;;;;;;;;;5010829;28;20221;-62
2021/10/15 00:11:58;;;;;;;4.53;3.30;;;;;;;;;;5009011;28;20602;-63
2021/10/15 00:14:24;;;;;;;3.87;3.10;;;;;;;;;;5009345;28;20177;-62
2021/10/15 00:16:50;;;;;;;4.00;3.10;;;;;;;;;;5009933;28;20178;-62
2021/10/15 00:19:17;;;;;;;3.77;3.03;;;;;;;;;;5008857;28;20201;-62
2021/10/15 00:21:43;;;;;;;4.00;3.00;;;;;;;;;;5009900;28;20212;-63
2021/10/15 00:24:10;;;;;;;5.27;3.00;;;;;;;;;;5009831;28;20182;-63
2021/10/15 00:26:39;;;;;;;4.87;3.20;;;;;;;;;;5026522;28;20714;-62
2021/10/15 00:29:09;;;;;;;7.87;3.20;;;;;;;;;;5010135;28;20204;-63
2021/10/15 00:31:36;;;;;;;6.73;3.40;;;;;;;;;;5010926;28;20178;-62
2021/10/15 00:34:02;;;;;;;6.63;3.07;;;;;;;;;;5010281;28;20170;-63
2021/10/15 00:36:29;;;;;;;3.77;2.83;;;;;;;;;;5028263;28;20184;-64
2021/10/15 00:38:55;;;;;;;4.40;3.67;;;;;;;;;;5028094;28;20647;-63
2021/10/15 00:41:21;;;;;;;8.37;3.80;;;;;;;;;;5026866;28;20272;-63
2021/10/15 00:44:06;;;;;;;6.23;3.23;;;;;;;;;;5027503;28;20265;-63
2021/10/15 00:46:33;;;;;;;3.87;3.10;;;;;;;;;;5027457;28;20173;-63
2021/10/15 00:49:01;;;;;;;4.60;3.10;;;;;;;;;;5009847;28;20209;-63
2021/10/15 00:51:27;;;;;;;4.10;3.33;;;;;;;;;;5010189;28;20280;-63
2021/10/15 00:53:54;;;;;;;4.87;3.07;;;;;;;;;;5028152;28;20205;-65
2021/10/15 00:56:24;;;;;;;5.47;3.60;;;;;;;;;;5008816;28;20445;-63
2021/10/15 00:58:50;;;;;;;4.00;3.10;;;;;;;;;;5010533;28;20185;-64
2021/10/15 01:01:16;;;;;;;3.47;3.10;;;;;;;;;;5027678;28;20185;-63
2021/10/15 01:03:43;;;;;;;6.30;3.43;;;;;;;;;;5009533;28;20190;-64
2021/10/15 01:06:09;;;;;;;3.40;3.03;;;;;;;;;;5009664;28;20610;-63
2021/10/15 01:08:45;;;;;;;4.67;3.00;;;;;;;;;;5028282;28;20625;-64
2021/10/15 01:11:13;;;;;;;3.17;2.83;;;;;;;;;;5009948;28;20177;-63
2021/10/15 01:13:40;;;;;;;3.33;2.63;;;;;;;;;;5031527;28;20170;-63
2021/10/15 01:16:07;;;;;;;5.97;3.40;;;;;;;;;;5013473;28;20560;-63
2021/10/15 01:18:34;;;;;;;3.73;3.03;;;;;;;;;;5013463;28;20189;-63
2021/10/15 01:21:01;;;;;;;4.53;3.60;;;;;;;;;;5031603;28;20184;-64
2021/10/15 01:23:27;;;;;;;5.23;3.10;;;;;;;;;;5013368;28;20188;-63
2021/10/15 01:25:54;;;;;;;3.37;2.97;;;;;;;;;;5012267;28;20546;-63
2021/10/15 01:28:21;;;;;;;4.00;3.00;;;;;;;;;;5012775;28;20201;-63
2021/10/15 01:30:47;;;;;;;6.13;3.30;;;;;;;;;;5009470;28;20181;-63
2021/10/15 01:33:14;;;;;;;3.50;3.13;;;;;;;;;;5019216;28;20174;-63
2021/10/15 01:35:41;;;;;;;4.60;2.90;;;;;;;;;;5031023;28;20194;-63
2021/10/15 01:38:07;;;;;;;4.40;3.20;;;;;;;;;;5012581;28;20186;-63
2021/10/15 01:40:33;;;;;;;4.27;3.40;;;;;;;;;;5050769;28;20169;-63
2021/10/15 01:43:00;;;;;;;5.77;3.23;;;;;;;;;;5030867;28;20671;-63
2021/10/15 01:45:27;;;;;;;3.30;3.00;;;;;;;;;;5032742;28;20246;-63
2021/10/15 01:47:54;;;;;;;4.13;3.30;;;;;;;;;;5026830;28;20232;-62
2021/10/15 01:50:22;;;;;;;4.03;2.97;;;;;;;;;;5030493;28;20581;-62
2021/10/15 01:52:49;;;;;;;3.97;3.57;;;;;;;;;;5014025;28;20246;-62
2021/10/15 01:55:18;;;;;;;5.60;3.20;;;;;;;;;;5032542;28;20632;-63
2021/10/15 01:57:44;;;;;;;4.07;2.80;;;;;;;;;;5026609;28;20222;-62
2021/10/15 02:00:11;;;;;;;4.57;3.00;;;;;;;;;;5012939;28;20180;-63
2021/10/15 02:02:38;;;;;;;4.23;3.63;;;;;;;;;;5012162;28;20193;-62
2021/10/15 02:05:05;;;;;;;5.90;3.23;;;;;;;;;;5012944;28;20441;-62
2021/10/15 02:07:32;;;;;;;4.90;3.50;;;;;;;;;;5012036;28;20229;-62
2021/10/15 02:09:58;;;;;;;5.67;3.27;;;;;;;;;;5012733;28;20177;-62
2021/10/15 02:12:24;;;;;;;4.43;3.10;;;;;;;;;;5010632;28;20177;-62
2021/10/15 02:14:51;;;;;;;5.30;3.17;;;;;;;;;;5012528;28;20221;-62
2021/10/15 02:17:18;;;;;;;4.43;3.00;;;;;;;;;;5011910;28;20551;-61
2021/10/15 02:19:47;;;;;;;6.60;2.83;;;;;;;;;;5012393;28;20201;-61
2021/10/15 02:22:13;;;;;;;3.60;3.13;;;;;;;;;;5011610;28;20648;-62
2021/10/15 02:24:39;;;;;;;4.73;3.07;;;;;;;;;;5010595;28;20740;-61
2021/10/15 02:27:06;;;;;;;3.93;3.60;;;;;;;;;;5009210;28;20207;-62
2021/10/15 02:29:32;;;;;;;4.03;3.63;;;;;;;;;;5028732;28;20204;-62
2021/10/15 02:31:58;;;;;;;4.10;3.07;;;;;;;;;;5012184;28;20182;-61
2021/10/15 02:34:24;;;;;;;3.83;2.93;;;;;;;;;;5029481;28;20226;-61
2021/10/15 02:36:51;;;;;;;4.63;3.07;;;;;;;;;;5011689;28;20178;-62
2021/10/15 02:39:23;;;;;;;3.80;3.20;;;;;;;;;;5011675;28;20182;-61
2021/10/15 02:41:49;;;;;;;3.30;2.70;;;;;;;;;;5011063;28;20306;-62
2021/10/15 02:44:16;;;;;;;5.10;4.30;;;;;;;;;;5011367;28;20679;-62
2021/10/15 02:46:42;;;;;;;4.00;3.07;;;;;;;;;;5029699;28;20618;-61
2021/10/15 02:49:09;;;;;;;6.93;2.90;;;;;;;;;;5010969;28;20214;-61
2021/10/15 02:51:35;;;;;;;5.20;3.33;;;;;;;;;;5011329;28;20234;-61
2021/10/15 02:54:03;;;;;;;3.90;3.30;;;;;;;;;;5011375;28;20632;-62
2021/10/15 02:56:30;;;;;;;4.70;3.27;;;;;;;;;;5010478;28;20718;-61
2021/10/15 02:58:56;;;;;;;4.07;2.90;;;;;;;;;;5029049;28;20193;-62
2021/10/15 03:01:22;;;;;;;5.43;5.03;;;;;;;;;;5029292;28;20178;-64
2021/10/15 03:03:49;;;;;;;5.97;3.50;;;;;;;;;;5011308;28;20193;-61
2021/10/15 03:06:16;;;;;;;4.90;3.50;;;;;;;;;;5011156;28;20193;-62
2021/10/15 03:08:42;;;;;;;3.50;3.20;;;;;;;;;;5029210;28;20359;-61
2021/10/15 03:11:09;;;;;;;3.83;3.00;;;;;;;;;;5028657;28;20178;-61
2021/10/15 03:13:35;;;;;;;4.50;3.20;;;;;;;;;;5010873;28;20189;-61
2021/10/15 03:16:02;;;;;;;4.80;4.10;;;;;;;;;;5011194;28;20204;-62
2021/10/15 03:18:28;;;;;;;5.53;3.50;;;;;;;;;;5010184;28;20213;-61
2021/10/15 03:20:54;;;;;;;4.97;3.17;;;;;;;;;;5028815;28;20181;-62
2021/10/15 03:23:26;;;;;;;7.70;3.53;;;;;;;;;;5028917;28;20601;-61
2021/10/15 03:25:52;;;;;;;4.13;3.70;;;;;;;;;;5010925;28;20615;-62
2021/10/15 03:28:19;;;;;;;4.43;3.13;;;;;;;;;;5010830;28;20308;-61
2021/10/15 03:30:45;;;;;;;5.83;3.67;;;;;;;;;;5028729;28;20690;-64
2021/10/15 03:33:12;;;;;;;6.43;5.07;;;;;;;;;;5011286;28;20262;-62
2021/10/15 03:35:38;;;;;;;6.13;3.47;;;;;;;;;;5024055;28;20599;-61
2021/10/15 03:38:04;;;;;;;3.80;3.40;;;;;;;;;;4997849;28;20193;-61
2021/10/15 03:40:31;;;;;;;3.47;3.03;;;;;;;;;;5011198;28;20182;-61
2021/10/15 03:42:57;;;;;;;4.57;3.70;;;;;;;;;;5015089;28;20193;-62
2021/10/15 03:45:24;;;;;;;3.97;3.57;;;;;;;;;;5031138;28;20243;-61
2021/10/15 03:47:50;;;;;;;5.33;3.40;;;;;;;;;;5030245;28;20209;-61
2021/10/15 03:50:16;;;;;;;5.07;3.80;;;;;;;;;;5049123;28;20228;-62
2021/10/15 03:52:42;;;;;;;5.67;3.70;;;;;;;;;;5026622;28;20233;-63
2021/10/15 03:55:10;;;;;;;5.03;3.90;;;;;;;;;;5011333;28;20217;-63
2021/10/15 03:57:37;;;;;;;4.43;3.90;;;;;;;;;;5030764;28;20327;-63
2021/10/15 04:00:08;;;;;;;5.60;4.60;;;;;;;;;;5031058;28;20176;-63
2021/10/15 04:02:38;;;;;;;4.23;3.63;;;;;;;;;;5048214;28;20187;-62
2021/10/15 04:05:05;;;;;;;6.40;4.10;;;;;;;;;;5031076;28;20180;-62
2021/10/15 04:07:31;;;;;;;7.40;3.77;;;;;;;;;;5030203;28;20647;-63
2021/10/15 04:09:58;;;;;;;4.43;3.50;;;;;;;;;;5049145;28;20177;-63
2021/10/15 04:12:24;;;;;;;4.60;3.73;;;;;;;;;;5046399;28;20240;-62
2021/10/15 04:14:50;;;;;;;5.27;4.03;;;;;;;;;;5011396;28;20200;-62
2021/10/15 04:17:17;;;;;;;7.10;4.10;;;;;;;;;;5028709;28;20964;-62
2021/10/15 04:19:43;;;;;;;5.03;3.90;;;;;;;;;;5048938;28;20246;-61
2021/10/15 04:22:10;;;;;;;6.13;3.87;;;;;;;;;;5030627;28;20177;-62
2021/10/15 04:24:40;;;;;;;6.67;4.03;;;;;;;;;;5010297;28;20268;-62
2021/10/15 04:27:07;;;;;;;5.20;4.47;;;;;;;;;;5025248;28;20169;-62
2021/10/15 04:29:33;;;;;;;6.07;4.97;;;;;;;;;;5026211;28;20193;-62
2021/10/15 04:32:03;;;;;;;8.33;4.07;;;;;;;;;;5026055;28;20573;-63
2021/10/15 04:34:29;;;;;;;5.73;4.03;;;;;;;;;;5025368;28;20355;-62
2021/10/15 04:36:55;;;;;;;5.70;3.40;;;;;;;;;;5027558;28;20174;-61
2021/10/15 04:39:21;;;;;;;6.57;3.73;;;;;;;;;;5009184;28;20277;-62
2021/10/15 04:41:47;;;;;;;4.50;3.93;;;;;;;;;;5008870;28;20203;-62
2021/10/15 04:44:14;;;;;;;4.73;4.10;;;;;;;;;;5027030;28;20220;-62
2021/10/15 04:46:40;;;;;;;6.00;4.03;;;;;;;;;;5011389;28;20545;-62
2021/10/15 04:49:06;;;;;;;6.70;3.63;;;;;;;;;;5012756;28;20489;-62
2021/10/15 04:51:32;;;;;;;6.77;4.33;;;;;;;;;;5013304;28;20283;-62
2021/10/15 04:53:59;;;;;;;4.50;3.30;;;;;;;;;;5013379;28;20181;-62
2021/10/15 04:56:25;;;;;;;4.20;3.80;;;;;;;;;;5012271;28;20225;-62
2021/10/15 04:58:52;;;;;;;11.13;4.17;;;;;;;;;;5027364;28;20644;-62
2021/10/15 05:01:18;;;;;;;8.23;3.90;;;;;;;;;;5013653;28;20648;-62
2021/10/15 05:03:44;;;;;;;3.77;3.40;;;;;;;;;;5013219;28;20182;-62
2021/10/15 05:06:10;;;;;;;5.90;4.00;;;;;;;;;;5031395;28;20174;-61
2021/10/15 05:08:44;;;;;;;3.90;3.60;;;;;;;;;;5013663;28;20210;-61
2021/10/15 05:11:10;;;;;;;4.37;3.53;;;;;;;;;;5012646;28;20613;-61
2021/10/15 05:13:37;;;;;;;5.30;3.83;;;;;;;;;;5012904;28;20186;-62
2021/10/15 05:16:03;;;;;;;3.77;3.10;;;;;;;;;;5013402;28;20598;-63
2021/10/15 05:18:29;;;;;;;5.37;3.70;;;;;;;;;;5023626;28;20221;-62
2021/10/15 05:20:56;;;;;;;7.63;3.73;;;;;;;;;;5031316;28;20267;-62
2021/10/15 05:23:22;;;;;;;5.67;3.67;;;;;;;;;;5012845;28;20198;-62
2021/10/15 05:25:48;;;;;;;4.17;3.60;;;;;;;;;;5012809;28;20204;-62
2021/10/15 05:28:15;;;;;;;7.67;3.90;;;;;;;;;;5012225;28;20205;-62
2021/10/15 05:30:42;;;;;;;4.40;3.60;;;;;;;;;;5020382;28;20190;-62
2021/10/15 05:33:08;;;;;;;4.27;3.87;;;;;;;;;;5017090;28;20269;-62
2021/10/15 05:35:34;;;;;;;7.13;3.80;;;;;;;;;;5009652;28;20609;-62
2021/10/15 05:38:01;;;;;;;8.77;3.97;;;;;;;;;;5002635;28;20189;-62
2021/10/15 05:40:27;;;;;;;5.67;3.93;;;;;;;;;;5030757;28;20248;-62
2021/10/15 05:42:53;;;;;;;6.00;4.23;;;;;;;;;;5011324;28;20697;-64
2021/10/15 05:45:20;;;;;;;6.67;3.57;;;;;;;;;;5030729;28;20174;-62
2021/10/15 05:47:46;;;;;;;7.47;4.33;;;;;;;;;;5025544;28;20342;-62
2021/10/15 05:50:13;;;;;;;5.00;3.63;;;;;;;;;;5032663;28;20189;-62
2021/10/15 05:52:42;;;;;;;8.20;3.90;;;;;;;;;;5032061;28;20265;-63
2021/10/15 06:00:29;;;;;;;6.07;4.23;;;;;;;;;;5050618;28;20677;-63
2021/10/15 06:02:56;;;;;;;4.33;3.80;;;;;;;;;;5031853;28;20215;-61
2021/10/15 06:15:59;;;;;;;6.23;3.90;;;;;;;;;;5050352;28;20226;-62
2021/10/15 06:18:25;;;;;;;6.60;3.70;;;;;;;;;;5045321;28;20185;-62
2021/10/15 06:20:53;;;;;;;4.23;3.40;;;;;;;;;;5031383;28;20260;-62
2021/10/15 06:23:20;;;;;;;6.73;4.53;;;;;;;;;;5049558;28;20189;-64
2021/10/15 06:25:47;;;;;;;4.50;4.10;;;;;;;;;;5031081;28;20189;-62
2021/10/15 06:28:14;;;;;;;4.33;3.90;;;;;;;;;;5030742;28;20209;-62
2021/10/15 06:30:41;;;;;;;6.33;3.77;;;;;;;;;;5027392;28;20188;-62
2021/10/15 06:33:07;;;;;;;4.83;3.77;;;;;;;;;;5017931;28;20184;-62
2021/10/15 06:35:34;;;;;;;5.00;3.90;;;;;;;;;;5048564;28;20201;-62
2021/10/15 06:38:00;;;;;;;4.70;4.00;;;;;;;;;;5030136;28;20672;-62
2021/10/15 06:40:27;;;;;;;4.87;3.57;;;;;;;;;;5049226;28;20687;-62
2021/10/15 06:42:54;;;;;;;5.23;3.27;;;;;;;;;;5030228;28;20212;-62
2021/10/15 06:45:20;;;;;;;5.27;3.90;;;;;;;;;;5049454;28;20209;-62
2021/10/15 06:47:46;;;;;;;4.47;3.50;;;;;;;;;;5030864;28;20204;-62
2021/10/15 06:50:13;;;;;;;6.53;4.47;;;;;;;;;;5031437;28;20590;-62
2021/10/15 06:52:49;;;;;;;7.00;3.67;;;;;;;;;;5031233;28;20232;-62
2021/10/15 06:55:20;;;;;;;6.60;4.40;;;;;;;;;;5031056;28;20181;-63
2021/10/15 06:57:46;;;;;;;4.80;3.93;;;;;;;;;;5005867;28;20233;-62
2021/10/15 07:00:13;;;;;;;6.33;4.07;;;;;;;;;;5011134;28;20181;-62
2021/10/15 07:02:40;;;;;;;4.73;3.43;;;;;;;;;;5028720;28;20245;-62
2021/10/15 07:05:07;;;;;;;7.70;3.90;;;;;;;;;;5029208;28;20621;-62
2021/10/15 07:07:33;;;;;;;7.03;4.20;;;;;;;;;;5010329;28;20349;-63
2021/10/15 07:10:00;;;;;;;4.07;3.60;;;;;;;;;;5010171;28;20629;-62
2021/10/15 07:12:39;;;;;;;6.03;3.80;;;;;;;;;;5008797;28;20252;-62
2021/10/15 07:15:09;;;;;;;5.37;3.80;;;;;;;;;;5010660;28;20186;-63
2021/10/15 07:17:36;;;;;;;4.67;4.03;;;;;;;;;;5009731;28;20276;-63
2021/10/15 07:20:02;;;;;;;4.83;3.03;;;;;;;;;;5011101;28;20190;-62
2021/10/15 07:22:28;;;;;;;7.70;3.77;;;;;;;;;;5010622;28;20659;-63
2021/10/15 07:24:55;;;;;;;5.83;3.57;;;;;;;;;;5028949;28;20166;-62
2021/10/15 07:27:23;;;;;;;6.37;3.40;;;;;;;;;;5027242;28;20174;-63
2021/10/15 07:29:50;;;;;;;8.60;4.17;;;;;;;;;;5005966;28;20572;-62
2021/10/15 07:32:16;;;;;;;6.43;3.57;;;;;;;;;;4989502;28;20182;-63
2021/10/15 07:34:43;;;;;;;4.80;3.50;;;;;;;;;;5009547;28;20170;-63
2021/10/15 07:37:09;;;;;;;7.13;3.97;;;;;;;;;;5009078;28;20259;-63
2021/10/15 07:39:35;;;;;;;6.17;3.70;;;;;;;;;;5009157;28;20574;-63
2021/10/15 07:42:03;;;;;;;5.23;4.00;;;;;;;;;;5027007;28;20682;-63
2021/10/15 07:44:29;;;;;;;7.00;4.33;;;;;;;;;;5010079;28;20169;-63
2021/10/15 07:46:56;;;;;;;4.57;3.70;;;;;;;;;;5010300;28;20185;-63
2021/10/15 07:49:22;;;;;;;4.87;3.63;;;;;;;;;;5028218;28;20201;-64
2021/10/15 07:51:49;;;;;;;5.90;3.88;;;;;;;;;;5027067;28;20428;-70
2021/10/15 07:54:15;;;;;;;4.27;3.90;;;;;;;;;;5027330;28;20166;-64
2021/10/15 07:56:41;;;;;;;7.27;4.37;;;;;;;;;;5009096;28;20229;-64
2021/10/15 07:59:08;;;;;;;8.77;4.70;;;;;;;;;;5007435;28;20193;-65
2021/10/15 08:01:35;;;;;;;6.07;4.33;;;;;;;;;;5010473;28;20185;-64
2021/10/15 08:04:02;;;;;;;6.67;4.47;;;;;;;;;;5010457;28;20236;-64
2021/10/15 08:06:32;;;;;;;5.83;4.57;;;;;;;;;;5010537;28;20255;-64
2021/10/15 08:08:58;;;;;;;7.03;4.73;;;;;;;;;;5010371;28;20202;-64
2021/10/15 08:11:24;;;;;;;5.83;4.50;;;;;;;;;;5008467;28;20209;-64
2021/10/15 08:13:51;;;;;;;6.17;4.20;;;;;;;;;;5010121;28;20220;-62
2021/10/15 08:16:19;;;;;;;5.07;4.40;;;;;;;;;;5028274;28;20193;-63
2021/10/15 08:18:47;;;;;;;8.20;4.87;;;;;;;;;;5010771;28;20201;-62
2021/10/15 08:21:15;;;;;;;5.47;4.40;;;;;;;;;;5010271;28;20177;-63
2021/10/15 08:23:43;;;;;;;6.10;4.10;;;;;;;;;;5028022;28;20181;-63
2021/10/15 08:26:09;;;;;;;6.80;4.53;;;;;;;;;;5008722;28;20192;-62
2021/10/15 08:28:36;;;;;;;5.50;4.13;;;;;;;;;;5027830;28;20835;-61
2021/10/15 08:31:05;;;;;;;11.13;5.13;;;;;;;;;;5006076;28;20189;-62
2021/10/15 08:33:31;;;;;;;7.73;5.00;;;;;;;;;;5018116;28;20199;-63
2021/10/15 08:36:00;;;;;;;6.07;4.93;;;;;;;;;;5010124;28;20173;-61
2021/10/15 08:38:27;;;;;;;7.63;5.77;;;;;;;;;;5009708;28;20187;-62
2021/10/15 08:40:53;;;;;;;8.17;4.90;;;;;;;;;;5026748;28;20299;-62
2021/10/15 08:43:19;;;;;;;10.27;5.37;;;;;;;;;;5010191;28;20193;-62
2021/10/15 08:45:46;;;;;;;10.77;6.23;;;;;;;;;;5027498;28;20177;-61
2021/10/15 08:48:12;;;;;;;10.97;6.33;;;;;;;;;;5009852;28;20569;-62
2021/10/15 08:50:39;;;;;;;9.63;6.10;;;;;;;;;;5027639;28;20665;-62
2021/10/15 08:53:06;;;;;;;7.53;5.97;;;;;;;;;;5009219;28;20237;-63
2021/10/15 08:55:32;;;;;;;14.03;6.77;;;;;;;;;;5007865;28;20659;-63
2021/10/15 08:58:00;;;;;;;8.23;6.67;;;;;;;;;;5024810;28;20561;-64
2021/10/15 09:00:31;;;;;;;9.83;6.40;;;;;;;;;;5008025;28;20202;-64
2021/10/15 09:03:13;;;;;;;10.40;6.33;;;;;;;;;;5006507;28;20642;-64
2021/10/15 09:05:40;;;;;;;12.83;7.07;;;;;;;;;;5008141;28;20736;-65
2021/10/15 09:08:09;;;;;;;7.27;5.63;;;;;;;;;;5007656;28;20607;-64
2021/10/15 09:10:36;;;;;;;8.60;6.03;;;;;;;;;;5008641;28;20177;-64
2021/10/15 09:13:17;;;;;;;8.37;6.43;;;;;;;;;;5026027;28;20324;-63
2021/10/15 09:15:45;;;;;;;8.10;5.23;;;;;;;;;;5027729;28;20196;-63
2021/10/15 09:18:13;;;;;;;9.70;6.07;;;;;;;;;;5009300;28;20710;-63
2021/10/15 09:20:39;;;;;;;8.93;6.30;;;;;;;;;;5009758;28;20217;-63
2021/10/15 09:23:06;;;;;;;12.77;6.67;;;;;;;;;;5026997;28;20178;-62
2021/10/15 09:25:33;;;;;;;9.10;6.23;;;;;;;;;;5009555;28;20732;-62
2021/10/15 09:28:00;;;;;;;10.93;7.07;;;;;;;;;;5008369;28;20206;-61
2021/10/15 09:30:28;;;;;;;8.33;6.00;;;;;;;;;;5005969;28;20273;-61
2021/10/15 09:32:56;;;;;;;9.97;6.87;;;;;;;;;;4997350;28;20672;-61
2021/10/15 09:35:24;;;;;;;9.50;6.20;;;;;;;;;;5012744;28;20709;-60
2021/10/15 09:37:54;;;;;;;10.40;6.07;;;;;;;;;;5012664;28;20263;-61
2021/10/15 09:40:22;;;;;;;9.20;6.60;;;;;;;;;;5030965;28;20197;-61
2021/10/15 09:42:50;;;;;;;9.30;6.93;;;;;;;;;;5011970;28;20668;-63
2021/10/15 09:45:21;;;;;;;9.03;6.17;;;;;;;;;;5012875;28;20520;-62
2021/10/15 09:47:48;;;;;;;8.10;6.87;;;;;;;;;;5012575;28;20240;-63
2021/10/15 09:50:16;;;;;;;7.03;6.23;;;;;;;;;;5013179;28;20200;-64
2021/10/15 09:52:54;;;;;;;8.18;7.30;;;;;;;;;;5011001;28;20413;-60
2021/10/15 09:55:34;;;;;;;6.57;5.80;;;;;;;;;;5012443;28;20162;-58
2021/10/15 09:58:10;;;;;;;7.67;5.60;;;;;;;;;;5011405;28;20592;-62
2021/10/15 10:00:36;;;;;;;7.93;5.03;;;;;;;;;;5012883;28;20183;-61
2021/10/15 10:03:03;;;;;;;5.80;5.13;;;;;;;;;;5012198;28;20189;-61
2021/10/15 10:05:30;;;;;;;6.23;5.00;;;;;;;;;;5012548;28;20188;-61
2021/10/15 10:07:57;;;;;;;6.67;4.63;;;;;;;;;;5012138;28;20209;-62
2021/10/15 10:10:25;;;;;;;5.10;4.20;;;;;;;;;;5012258;28;20187;-62
2021/10/15 10:12:52;;;;;;;5.80;4.03;;;;;;;;;;5011262;28;20668;-61
2021/10/15 10:15:19;;;;;;;6.33;4.27;;;;;;;;;;5012591;28;20177;-62
2021/10/15 10:17:51;;;;;;;4.10;3.70;;;;;;;;;;5012025;28;20182;-62
2021/10/15 10:20:21;;;;;;;5.73;3.80;;;;;;;;;;5030313;28;20166;-61
2021/10/15 10:22:58;;;;;;;4.50;3.77;;;;;;;;;;5029674;28;20607;-62
2021/10/15 10:25:24;;;;;;;3.27;2.90;;;;;;;;;;5011769;28;20204;-62
2021/10/15 10:27:52;;;;;;;4.07;3.20;;;;;;;;;;5010759;28;20227;-62
2021/10/15 10:30:34;;;;;;;3.73;3.17;;;;;;;;;;5013819;28;20527;-63
2021/10/15 10:33:01;;;;;;;4.33;2.87;;;;;;;;;;5013561;28;20549;-62
2021/10/15 10:35:29;;;;;;;3.40;2.50;;;;;;;;;;5031469;28;20166;-61
2021/10/15 10:38:14;;;;;;;4.20;2.80;;;;;;;;;;5013030;28;20276;-62
2021/10/15 10:41:00;;;;;;;2.87;2.43;;;;;;;;;;5030511;28;20170;-62
2021/10/15 10:43:30;;;;;;;4.37;2.80;;;;;;;;;;5010561;28;20273;-62
2021/10/15 10:46:09;;;;;;;2.83;2.47;;;;;;;;;;5027915;28;20484;-62
2021/10/15 10:49:06;;;;;;;3.10;2.00;;;;;;;;;;5010579;28;20629;-62
2021/10/15 10:51:32;;;;;;;1.70;1.60;;;;;;;;;;5008853;28;20228;-61
2021/10/15 10:54:05;;;;;;;3.10;1.93;;;;;;;;;;5028436;28;20267;-61
2021/10/15 10:56:40;;;;;;;4.50;2.00;;;;;;;;;;5009083;28;20220;-62
2021/10/15 10:59:22;;;;;;;2.37;1.97;;;;;;;;;;5010511;28;20196;-62
2021/10/15 11:01:53;;;;;;;2.17;1.80;;;;;;;;;;5010581;28;20507;-65
2021/10/15 11:04:28;;;;;;;2.37;1.77;;;;;;;;;;5010381;28;20218;-63
2021/10/15 11:06:59;;;;;;;3.13;1.77;;;;;;;;;;5028693;28;20174;-62
2021/10/15 11:09:44;;;;;;;4.17;1.80;;;;;;;;;;5011085;28;20628;-62
2021/10/15 11:12:11;;;;;;;1.60;1.50;;;;;;;;;;5010471;28;20184;-63
2021/10/15 11:14:47;;;;;;;2.00;1.70;;;;;;;;;;5011781;28;20178;-63
2021/10/15 11:17:22;;;;;;;3.50;1.80;;;;;;;;;;5029093;28;20173;-63
2021/10/15 11:19:48;;;;;;;3.37;1.83;;;;;;;;;;4992998;28;20175;-63
2021/10/15 11:22:20;;;;;;;2.50;2.13;;;;;;;;;;5009785;28;20198;-65
2021/10/15 11:24:58;;;;;;;1.80;1.70;;;;;;;;;;5029636;28;20162;-64
2021/10/15 11:27:27;;;;;;;2.73;1.60;;;;;;;;;;5028055;28;20221;-64
2021/10/15 11:30:01;;;;;;;5.10;1.60;;;;;;;;;;5029288;28;20204;-66
2021/10/15 11:32:34;;;;;;;2.93;2.13;;;;;;;;;;5010830;28;20235;-63
2021/10/15 11:35:09;;;;;;;2.53;2.03;;;;;;;;;;5030199;28;20515;-64
2021/10/15 11:37:46;;;;;;;4.67;1.70;;;;;;;;;;5010321;28;20472;-64
2021/10/15 11:40:29;;;;;;;3.90;1.93;;;;;;;;;;5011455;28;20513;-64
2021/10/15 11:43:05;;;;;;;2.77;1.63;;;;;;;;;;5009766;28;20605;-64
2021/10/15 11:45:36;;;;;;;5.20;2.30;;;;;;;;;;5010366;28;20219;-63
2021/10/15 11:48:04;;;;;;;2.43;1.90;;;;;;;;;;5011420;28;20217;-64
2021/10/15 11:50:33;;;;;;;3.43;2.67;;;;;;;;;;5029556;28;20174;-63
2021/10/15 11:53:02;;;;;;;3.80;1.73;;;;;;;;;;5011328;28;20229;-64
2021/10/15 11:55:31;;;;;;;5.60;2.10;;;;;;;;;;5009942;28;20228;-62
2021/10/15 11:58:17;;;;;;;3.50;2.47;;;;;;;;;;5027593;28;20178;-62
2021/10/15 12:00:56;;;;;;;5.70;2.13;;;;;;;;;;5028707;28;20178;-62
2021/10/15 12:03:37;;;;;;;7.93;3.13;;;;;;;;;;5008635;28;20181;-62
2021/10/15 12:06:27;;;;;;;3.70;2.00;;;;;;;;;;5026880;28;20647;-63
2021/10/15 12:09:23;;;;;;;5.30;2.17;;;;;;;;;;5009387;28;20763;-63
2021/10/15 12:11:50;;;;;;;4.57;2.27;;;;;;;;;;5006205;28;20190;-63
2021/10/15 12:14:23;;;;;;;4.63;2.83;;;;;;;;;;5027135;28;20182;-62
2021/10/15 12:16:49;;;;;;;3.43;2.63;;;;;;;;;;5009002;28;20217;-63
2021/10/15 12:19:25;;;;;;;4.33;2.53;;;;;;;;;;5007373;28;20220;-62
2021/10/15 12:21:54;;;;;;;5.87;2.87;;;;;;;;;;5010541;28;20165;-62
2021/10/15 12:25:01;;;;;;;5.90;3.77;;;;;;;;;;5009574;28;20258;-62
2021/10/15 12:27:38;;;;;;;6.10;2.17;;;;;;;;;;4930582;29;20199;-62
2021/10/15 12:30:15;;;;;;;4.93;2.37;;;;;;;;;;4999968;28;20280;-62
2021/10/15 12:32:44;;;;;;;4.90;2.93;;;;;;;;;;5009889;28;20615;-62
2021/10/15 12:35:18;;;;;;;5.93;2.80;;;;;;;;;;5028763;28;20174;-62
2021/10/15 12:37:44;;;;;;;6.93;2.90;;;;;;;;;;5009889;28;20184;-62
2021/10/15 12:40:29;;;;;;;5.73;2.30;;;;;;;;;;5026928;28;20177;-64
2021/10/15 12:42:59;;;;;;;6.90;2.50;;;;;;;;;;5007476;28;20268;-62
2021/10/15 12:45:53;;;;;;;4.70;2.27;;;;;;;;;;5008839;28;20264;-62
2021/10/15 12:48:21;;;;;;;6.30;2.90;;;;;;;;;;5008245;28;20240;-62
2021/10/15 12:51:15;;;;;;;3.37;2.30;;;;;;;;;;5008627;28;20177;-61
2021/10/15 12:53:55;;;;;;;3.63;3.07;;;;;;;;;;5008857;28;20257;-62
2021/10/15 12:56:22;;;;;;;4.30;2.30;;;;;;;;;;5008271;28;20642;-62
2021/10/15 12:58:56;;;;;;;4.53;2.30;;;;;;;;;;5009655;28;20182;-61
2021/10/15 13:01:26;;;;;;;4.23;3.00;;;;;;;;;;5009956;28;20204;-62
2021/10/15 13:03:53;;;;;;;5.80;2.50;;;;;;;;;;5010278;28;20682;-61
2021/10/15 13:06:19;;;;;;;5.73;2.97;;;;;;;;;;5027745;28;20174;-62
2021/10/15 13:08:49;;;;;;;5.67;2.80;;;;;;;;;;5013470;28;20204;-61
2021/10/15 13:11:18;;;;;;;4.27;1.97;;;;;;;;;;5013024;28;20611;-62
2021/10/15 13:13:44;;;;;;;5.97;2.20;;;;;;;;;;5013493;28;20182;-61
2021/10/15 13:16:10;;;;;;;5.70;2.50;;;;;;;;;;5031642;28;20687;-64
2021/10/15 13:18:37;;;;;;;3.83;2.17;;;;;;;;;;5030997;28;20257;-63
2021/10/15 13:21:03;;;;;;;7.47;2.47;;;;;;;;;;5031315;28;20178;-61
2021/10/15 13:23:30;;;;;;;4.00;2.40;;;;;;;;;;5013004;28;20204;-64
2021/10/15 13:25:57;;;;;;;5.67;2.23;;;;;;;;;;5030260;28;20173;-62
2021/10/15 13:28:23;;;;;;;2.47;1.87;;;;;;;;;;5031135;28;20653;-62
2021/10/15 13:30:49;;;;;;;3.57;2.10;;;;;;;;;;5013033;28;20629;-63
2021/10/15 13:33:19;;;;;;;6.83;2.47;;;;;;;;;;5012886;28;20181;-63
2021/10/15 13:35:48;;;;;;;4.37;2.00;;;;;;;;;;5010229;28;20181;-62
2021/10/15 13:38:19;;;;;;;4.00;2.10;;;;;;;;;;5001483;28;20204;-63
2021/10/15 13:40:58;;;;;;;4.87;1.97;;;;;;;;;;5012847;28;20181;-63
2021/10/15 13:46:11;;;;;;;5.00;2.00;;;;;;;;;;5030811;28;20656;-62
2021/10/15 13:51:23;;;;;;;3.30;2.10;;;;;;;;;;5030933;28;20522;-62
2021/10/15 13:53:49;;;;;;;3.57;2.13;;;;;;;;;;5030483;28;20414;-62
2021/10/15 13:56:17;;;;;;;4.17;2.03;;;;;;;;;;5029670;28;20623;-62
2021/10/15 13:58:48;;;;;;;2.17;1.70;;;;;;;;;;5030371;28;20186;-63
2021/10/15 14:01:33;;;;;;;5.00;2.83;;;;;;;;;;5012917;28;20205;-64
2021/10/15 14:06:25;;;;;;;4.90;1.70;;;;;;;;;;5030494;28;20190;-63
2021/10/15 14:08:51;;;;;;;2.83;1.60;;;;;;;;;;5030626;28;20301;-62
2021/10/15 14:11:20;;;;;;;3.27;1.80;;;;;;;;;;5011319;28;20496;-62
2021/10/15 14:13:47;;;;;;;3.73;2.10;;;;;;;;;;5012344;28;20249;-62
2021/10/15 14:16:18;;;;;;;2.33;1.70;;;;;;;;;;5012374;28;20177;-62
2021/10/15 14:18:48;;;;;;;2.87;1.80;;;;;;;;;;5025267;28;20193;-63
2021/10/15 14:21:14;;;;;;;2.90;2.27;;;;;;;;;;5012496;28;20174;-63
2021/10/15 14:23:41;;;;;;;2.03;1.60;;;;;;;;;;5030102;28;20709;-63
2021/10/15 14:26:07;;;;;;;2.43;1.50;;;;;;;;;;5011288;28;20182;-63
2021/10/15 14:28:34;;;;;;;3.40;1.97;;;;;;;;;;5029810;28;20213;-62
2021/10/15 14:31:03;;;;;;;4.80;1.70;;;;;;;;;;5008928;28;20245;-62
2021/10/15 14:33:30;;;;;;;2.13;1.40;;;;;;;;;;5002758;28;20616;-63
2021/10/15 14:35:56;;;;;;;2.17;1.70;;;;;;;;;;5012243;28;20656;-62
2021/10/15 14:38:23;;;;;;;3.87;1.90;;;;;;;;;;5011964;28;20648;-63
2021/10/15 14:40:50;;;;;;;4.03;1.60;;;;;;;;;;5029358;28;20213;-63
2021/10/15 14:43:23;;;;;;;3.13;1.50;;;;;;;;;;5011440;28;20635;-64
2021/10/15 14:45:49;;;;;;;2.53;2.27;;;;;;;;;;5011726;28;20188;-63
2021/10/15 14:48:15;;;;;;;2.40;1.60;;;;;;;;;;5011933;28;20616;-62
2021/10/15 14:50:42;;;;;;;2.50;1.47;;;;;;;;;;5029733;28;20624;-61
2021/10/15 14:53:08;;;;;;;6.90;2.10;;;;;;;;;;5011566;28;20204;-63
2021/10/15 14:55:37;;;;;;;2.80;2.10;;;;;;;;;;5011217;28;20247;-62
2021/10/15 14:58:07;;;;;;;2.63;1.30;;;;;;;;;;5010101;28;20213;-62
2021/10/15 15:00:33;;;;;;;2.67;1.77;;;;;;;;;;5011559;28;20655;-62
2021/10/15 15:03:00;;;;;;;3.10;1.53;;;;;;;;;;5011104;28;20186;-62
2021/10/15 15:05:26;;;;;;;3.83;1.60;;;;;;;;;;5011480;28;20245;-63
2021/10/15 15:07:53;;;;;;;2.30;1.43;;;;;;;;;;5011096;28;20216;-62
2021/10/15 15:10:19;;;;;;;2.33;1.33;;;;;;;;;;5029878;28;20166;-63
2021/10/15 15:12:45;;;;;;;3.20;1.77;;;;;;;;;;5027834;28;20177;-62
2021/10/15 15:15:11;;;;;;;3.43;1.30;;;;;;;;;;5011445;28;20205;-62
2021/10/15 15:17:40;;;;;;;3.90;1.53;;;;;;;;;;5010669;28;20267;-63